createdAt,value
2023-02-05T00:00:51.611Z,46.92
2023-02-05T00:03:19.789Z,46.90
2023-02-05T00:05:47.785Z,47.05
2023-02-05T00:08:15.844Z,46.51
2023-02-05T00:10:44.113Z,46.35
2023-02-05T00:13:12.572Z,47.10
2023-02-05T00:15:40.934Z,47.53
2023-02-05T00:18:09.724Z,47.27
2023-02-05T00:20:38.006Z,46.88
2023-02-05T00:23:06.322Z,47.15
2023-02-05T00:25:34.711Z,46.48
2023-02-05T00:28:03.328Z,45.97
2023-02-05T00:30:32.270Z,46.04
2023-02-05T00:33:00.434Z,46.48
2023-02-05T00:35:30.233Z,46.54
2023-02-05T00:37:58.314Z,46.28
2023-02-05T00:40:26.668Z,46.44
2023-02-05T00:42:54.680Z,46.84
2023-02-05T00:45:22.925Z,46.45
2023-02-05T00:47:50.894Z,46.38
2023-02-05T00:50:19.074Z,46.80
2023-02-05T00:52:47.059Z,46.63
2023-02-05T00:55:15.305Z,47.04
2023-02-05T00:57:43.346Z,47.29
2023-02-05T01:00:12.447Z,46.79
2023-02-05T01:02:41.659Z,46.81
2023-02-05T01:05:09.844Z,46.44
2023-02-05T01:07:38.430Z,45.89
2023-02-05T01:10:07.808Z,45.98
2023-02-05T01:12:36.014Z,45.93
2023-02-05T01:15:06.261Z,45.54
2023-02-05T01:17:34.712Z,45.32
2023-02-05T01:20:03.196Z,44.86
2023-02-05T01:22:32.289Z,45.76
2023-02-05T01:25:00.500Z,46.31
2023-02-05T01:27:28.536Z,46.78
2023-02-05T01:29:57.123Z,47.31
2023-02-05T01:32:25.299Z,46.68
2023-02-05T01:34:53.266Z,46.84
2023-02-05T01:37:21.748Z,46.54
2023-02-05T01:39:52.138Z,46.76
2023-02-05T01:42:22.936Z,47.37
2023-02-05T01:45:23.576Z,47.25
2023-02-05T01:47:53.054Z,47.53
2023-02-05T01:50:27.256Z,47.28
2023-02-05T01:52:55.912Z,46.77
2023-02-05T01:55:24.391Z,46.32
2023-02-05T01:57:52.515Z,46.17
2023-02-05T02:00:21.706Z,46.44
2023-02-05T02:02:49.664Z,47.21
2023-02-05T02:05:18.211Z,47.38
2023-02-05T02:07:46.398Z,47.29
2023-02-05T02:10:15.517Z,47.57
2023-02-05T02:12:44.397Z,47.92
2023-02-05T02:15:15.454Z,48.17
2023-02-05T02:17:45.978Z,48.41
2023-02-05T02:20:18.764Z,48.30
2023-02-05T02:22:55.959Z,47.92
2023-02-05T02:25:33.283Z,47.34
2023-02-05T02:28:02.876Z,47.05
2023-02-05T02:30:35.733Z,47.11
2023-02-05T02:33:15.324Z,47.40
2023-02-05T02:36:01.273Z,47.11
2023-02-05T02:38:35.889Z,46.88
2023-02-05T02:41:10.809Z,46.53
2023-02-05T02:44:05.914Z,46.74
2023-02-05T02:46:38.816Z,47.25
2023-02-05T02:49:08.622Z,47.01
2023-02-05T02:51:36.789Z,47.03
2023-02-05T02:54:08.044Z,47.54
2023-02-05T02:56:37.645Z,47.36
2023-02-05T02:59:10.290Z,46.66
2023-02-05T03:01:42.580Z,46.45
2023-02-05T03:04:14.948Z,46.52
2023-02-05T03:06:45.256Z,47.17
2023-02-05T03:09:22.793Z,47.53
2023-02-05T03:11:51.164Z,46.72
2023-02-05T03:14:19.719Z,46.39
2023-02-05T03:16:47.774Z,45.85
2023-02-05T03:19:16.536Z,45.71
2023-02-05T03:21:51.478Z,45.75
2023-02-05T03:24:19.628Z,45.14
2023-02-05T03:26:49.529Z,44.92
2023-02-05T03:29:27.325Z,44.57
2023-02-05T03:32:34.118Z,43.77
2023-02-05T03:35:08.222Z,43.35
2023-02-05T03:37:52.269Z,42.90
2023-02-05T03:40:20.684Z,43.32
2023-02-05T03:43:04.240Z,44.59
2023-02-05T03:45:35.238Z,44.30
2023-02-05T03:48:41.009Z,44.26
2023-02-05T03:51:33.218Z,43.83
2023-02-05T03:54:07.080Z,44.23
2023-02-05T03:56:56.931Z,44.12
2023-02-05T03:59:25.309Z,44.60
2023-02-05T04:01:53.776Z,44.73
2023-02-05T04:04:22.097Z,44.33
2023-02-05T04:06:52.773Z,44.76
2023-02-05T04:09:20.907Z,44.46
2023-02-05T04:11:48.798Z,44.41
2023-02-05T04:14:18.460Z,44.60
2023-02-05T04:16:47.116Z,44.79
2023-02-05T04:19:15.400Z,44.86
2023-02-05T04:21:43.654Z,44.01
2023-02-05T04:24:12.476Z,43.59
2023-02-05T04:26:40.640Z,43.86
2023-02-05T04:29:09.298Z,43.72
2023-02-05T04:31:42.969Z,44.14
2023-02-05T04:34:12.164Z,44.08
2023-02-05T04:36:41.159Z,43.77
2023-02-05T04:39:09.295Z,43.97
2023-02-05T04:41:37.949Z,44.30
2023-02-05T04:44:06.855Z,44.08
2023-02-05T04:46:35.873Z,43.70
2023-02-05T04:49:04.050Z,43.57
2023-02-05T04:51:32.880Z,43.65
2023-02-05T04:54:00.947Z,43.57
2023-02-05T04:56:29.179Z,43.38
2023-02-05T04:58:57.432Z,43.66
2023-02-05T05:01:25.825Z,43.74
2023-02-05T05:03:53.978Z,43.34
2023-02-05T05:06:21.951Z,44.21
2023-02-05T05:08:49.961Z,43.90
2023-02-05T05:11:18.958Z,43.84
2023-02-05T05:13:49.447Z,44.16
2023-02-05T05:16:17.950Z,43.52
2023-02-05T05:18:46.091Z,43.09
2023-02-05T05:21:14.307Z,43.40
2023-02-05T05:23:42.845Z,43.51
2023-02-05T05:26:11.701Z,43.19
2023-02-05T05:28:39.871Z,42.77
2023-02-05T05:31:16.942Z,43.05
2023-02-05T05:33:45.783Z,42.89
2023-02-05T05:36:14.465Z,43.36
2023-02-05T05:38:42.643Z,43.70
2023-02-05T05:41:41.682Z,43.66
2023-02-05T05:44:09.959Z,43.57
2023-02-05T05:46:41.918Z,43.69
2023-02-05T05:49:10.176Z,43.94
2023-02-05T05:51:38.655Z,44.33
2023-02-05T05:54:06.721Z,44.11
2023-02-05T05:56:36.361Z,44.08
2023-02-05T05:59:04.631Z,44.15
2023-02-05T06:01:32.792Z,44.25
2023-02-05T06:04:03.628Z,44.20
2023-02-05T06:06:32.184Z,44.38
2023-02-05T06:09:00.382Z,43.46
2023-02-05T06:11:28.704Z,42.97
2023-02-05T06:13:57.174Z,42.62
2023-02-05T06:16:25.775Z,42.24
2023-02-05T06:18:55.298Z,42.53
2023-02-05T06:21:24.054Z,43.05
2023-02-05T06:23:55.608Z,42.71
2023-02-05T06:26:23.570Z,43.25
2023-02-05T06:28:51.522Z,43.89
2023-02-05T06:31:19.545Z,43.97
2023-02-05T06:33:49.478Z,43.60
2023-02-05T06:36:17.773Z,43.05
2023-02-05T06:38:45.759Z,42.97
2023-02-05T06:41:13.784Z,42.41
2023-02-05T06:43:42.883Z,42.12
2023-02-05T06:46:11.994Z,41.80
2023-02-05T06:48:40.008Z,41.76
2023-02-05T06:51:08.092Z,43.27
2023-02-05T06:53:36.098Z,43.51
2023-02-05T06:56:04.857Z,43.53
2023-02-05T06:58:32.837Z,45.83
2023-02-05T07:01:02.018Z,46.12
2023-02-05T07:03:30.118Z,46.62
2023-02-05T07:06:05.052Z,46.83
2023-02-05T07:08:33.480Z,46.80
2023-02-05T07:11:02.267Z,46.48
2023-02-05T07:13:33.260Z,45.69
2023-02-05T07:16:05.527Z,44.77
2023-02-05T07:18:33.918Z,45.12
2023-02-05T07:21:08.978Z,44.18
2023-02-05T07:23:37.532Z,45.32
2023-02-05T07:26:07.570Z,46.59
2023-02-05T07:28:35.759Z,46.81
2023-02-05T07:31:06.308Z,47.54
2023-02-05T07:33:37.073Z,47.41
2023-02-05T07:36:06.834Z,46.88
2023-02-05T07:38:36.361Z,46.39
2023-02-05T07:41:09.378Z,47.26
2023-02-05T07:43:37.693Z,47.08
2023-02-05T07:46:07.475Z,47.42
2023-02-05T07:48:35.747Z,45.73
2023-02-05T07:51:04.718Z,45.55
2023-02-05T07:53:32.922Z,46.39
2023-02-05T07:56:04.787Z,46.74
2023-02-05T07:58:33.089Z,46.74
2023-02-05T08:03:43.433Z,51.84
2023-02-05T08:06:14.010Z,49.68
2023-02-05T08:08:42.482Z,48.82
2023-02-05T08:11:14.204Z,48.79
2023-02-05T08:13:43.329Z,48.44
2023-02-05T08:16:15.810Z,48.38
2023-02-05T08:18:46.941Z,48.70
2023-02-05T08:21:16.243Z,47.35
2023-02-05T08:23:44.358Z,47.04
2023-02-05T08:26:13.474Z,46.89
2023-02-05T08:28:41.840Z,46.61
2023-02-05T08:31:15.644Z,45.79
2023-02-05T08:33:44.124Z,46.76
2023-02-05T08:36:12.267Z,46.14
2023-02-05T08:38:41.052Z,46.08
2023-02-05T08:41:12.816Z,46.39
2023-02-05T08:43:41.962Z,46.09
2023-02-05T08:46:10.491Z,46.79
2023-02-05T08:48:38.796Z,46.92
2023-02-05T08:51:09.950Z,46.96
2023-02-05T08:53:38.143Z,47.04
2023-02-05T08:56:06.837Z,46.11
2023-02-05T08:58:34.926Z,46.37
2023-02-05T09:01:05.779Z,45.98
2023-02-05T09:03:34.114Z,45.20
2023-02-05T09:06:05.351Z,45.42
2023-02-05T09:08:33.366Z,44.88
2023-02-05T09:11:01.602Z,44.68
2023-02-05T09:13:30.002Z,44.27
2023-02-05T09:16:00.854Z,44.21
2023-02-05T09:18:29.100Z,44.06
2023-02-05T09:20:57.584Z,44.51
2023-02-05T09:23:26.070Z,44.91
2023-02-05T09:25:54.349Z,44.33
2023-02-05T09:28:22.880Z,43.90
2023-02-05T09:30:51.773Z,44.67
2023-02-05T09:33:19.957Z,44.42
2023-02-05T09:35:48.079Z,44.30
2023-02-05T09:38:17.976Z,44.59
2023-02-05T09:41:10.500Z,44.79
2023-02-05T09:43:57.133Z,44.56
2023-02-05T09:46:40.436Z,45.18
2023-02-05T09:49:18.760Z,45.15
2023-02-05T09:51:51.820Z,44.88
2023-02-05T09:54:26.056Z,44.79
2023-02-05T09:56:56.924Z,45.32
2023-02-05T09:59:26.536Z,45.96
2023-02-05T10:01:58.926Z,45.89
2023-02-05T10:04:27.874Z,45.30
2023-02-05T10:06:55.899Z,45.04
2023-02-05T10:09:54.437Z,44.61
2023-02-05T10:12:41.667Z,43.57
2023-02-05T10:15:29.315Z,43.48
2023-02-05T10:18:18.826Z,44.24
2023-02-05T10:20:56.057Z,42.72
2023-02-05T10:23:50.839Z,41.10
2023-02-05T10:26:19.015Z,41.03
2023-02-05T10:29:03.875Z,41.16
2023-02-05T10:31:36.937Z,41.42
2023-02-05T10:34:30.752Z,42.05
2023-02-05T10:36:58.755Z,42.26
2023-02-05T10:39:29.123Z,42.65
2023-02-05T10:42:17.227Z,42.48
2023-02-05T10:44:46.588Z,42.41
2023-02-05T10:47:29.002Z,42.64
2023-02-05T10:50:01.340Z,42.80
2023-02-05T10:52:29.446Z,42.94
2023-02-05T10:54:57.829Z,43.39
2023-02-05T10:57:25.976Z,43.34
2023-02-05T10:59:56.215Z,43.20
2023-02-05T11:02:38.324Z,42.88
2023-02-05T11:05:27.843Z,42.94
2023-02-05T11:07:56.362Z,42.93
2023-02-05T11:10:26.160Z,42.98
2023-02-05T11:12:56.613Z,42.97
2023-02-05T11:15:29.627Z,43.35
2023-02-05T11:18:05.244Z,43.69
2023-02-05T11:20:35.662Z,44.19
2023-02-05T11:23:18.550Z,44.22
2023-02-05T11:25:57.989Z,43.71
2023-02-05T11:28:29.802Z,44.00
2023-02-05T11:31:04.677Z,44.01
2023-02-05T11:33:33.503Z,44.02
2023-02-05T11:36:03.946Z,43.74
2023-02-05T11:38:46.705Z,44.16
2023-02-05T11:41:52.060Z,43.84
2023-02-05T11:44:25.900Z,43.91
2023-02-05T11:46:56.985Z,44.38
2023-02-05T11:49:31.370Z,44.23
2023-02-05T11:52:02.462Z,44.35
2023-02-05T11:54:32.496Z,44.25
2023-02-05T11:57:17.489Z,44.30
2023-02-05T11:59:54.758Z,45.36
2023-02-05T12:02:28.850Z,45.76
2023-02-05T12:05:31.282Z,45.30
2023-02-05T12:08:07.084Z,45.30
2023-02-05T12:11:01.328Z,45.23
2023-02-05T12:13:39.326Z,44.23
2023-02-05T12:16:47.638Z,44.60
2023-02-05T12:19:31.163Z,43.54
2023-02-05T12:22:24.023Z,43.24
2023-02-05T12:24:55.270Z,44.22
2023-02-05T12:27:50.284Z,43.91
2023-02-05T12:30:44.682Z,44.49
2023-02-05T12:33:35.160Z,44.43
2023-02-05T12:36:22.067Z,43.72
2023-02-05T12:39:15.253Z,43.65
2023-02-05T12:41:55.143Z,43.54
2023-02-05T12:44:28.256Z,43.61
2023-02-05T12:47:19.378Z,43.23
2023-02-05T12:50:06.799Z,43.47
2023-02-05T12:52:45.925Z,43.73
2023-02-05T12:55:29.487Z,43.59
2023-02-05T12:58:04.241Z,43.77
2023-02-05T13:00:34.429Z,43.81
2023-02-05T13:03:17.234Z,43.52
2023-02-05T13:05:48.267Z,42.79
2023-02-05T13:08:20.416Z,42.39
2023-02-05T13:10:55.341Z,42.82
2023-02-05T13:13:32.256Z,43.25
2023-02-05T13:16:14.895Z,43.32
2023-02-05T13:18:54.501Z,43.41
2023-02-05T13:21:41.727Z,43.37
2023-02-05T13:24:31.504Z,43.27
2023-02-05T13:27:18.860Z,43.84
2023-02-05T13:29:51.717Z,43.90
2023-02-05T13:32:21.934Z,43.76
2023-02-05T13:34:54.934Z,44.06
2023-02-05T13:38:01.558Z,44.03
2023-02-05T13:40:36.148Z,43.87
2023-02-05T13:43:20.060Z,44.26
2023-02-05T13:46:10.626Z,44.32
2023-02-05T13:48:52.624Z,44.68
2023-02-05T13:51:39.059Z,44.40
2023-02-05T13:54:24.273Z,44.79
2023-02-05T13:56:58.767Z,44.86
2023-02-05T13:59:40.962Z,45.29
2023-02-05T14:02:39.623Z,44.88
2023-02-05T14:05:08.097Z,44.94
2023-02-05T14:07:50.035Z,44.71
2023-02-05T14:10:27.944Z,44.70
2023-02-05T14:13:33.776Z,44.57
2023-02-05T14:16:38.014Z,44.44
2023-02-05T14:19:21.990Z,45.44
2023-02-05T14:22:00.063Z,46.62
2023-02-05T14:24:45.240Z,46.53
2023-02-05T14:27:39.869Z,46.23
2023-02-05T14:30:30.727Z,46.25
2023-02-05T14:33:05.729Z,46.04
2023-02-05T14:35:40.791Z,45.31
2023-02-05T14:38:32.201Z,46.01
2023-02-05T14:41:10.688Z,46.23
2023-02-05T14:43:41.062Z,46.78
2023-02-05T14:46:27.216Z,46.34
2023-02-05T14:49:00.022Z,46.06
2023-02-05T14:51:35.171Z,46.47
2023-02-05T14:54:04.779Z,46.56
2023-02-05T14:56:46.888Z,47.25
2023-02-05T14:59:29.853Z,47.07
2023-02-05T15:02:00.070Z,47.03
2023-02-05T15:04:30.139Z,47.32
2023-02-05T15:06:59.453Z,47.76
2023-02-05T15:09:39.189Z,48.62
2023-02-05T15:12:07.868Z,48.73
2023-02-05T15:14:51.918Z,48.68
2023-02-05T15:17:29.537Z,47.81
2023-02-05T15:20:00.623Z,47.80
2023-02-05T15:22:33.799Z,47.16
2023-02-05T15:25:10.508Z,46.66
2023-02-05T15:27:46.972Z,46.64
2023-02-05T15:30:18.423Z,47.40
2023-02-05T15:32:54.175Z,47.61
2023-02-05T15:35:24.914Z,47.94
2023-02-05T15:37:53.612Z,48.03
2023-02-05T15:40:27.452Z,48.84
2023-02-05T15:42:58.317Z,48.64
2023-02-05T15:45:32.345Z,47.10
2023-02-05T15:48:16.314Z,47.09
2023-02-05T15:50:49.796Z,46.58
2023-02-05T15:53:35.916Z,47.12
2023-02-05T15:56:21.753Z,46.73
2023-02-05T15:59:11.994Z,46.36
2023-02-05T16:02:06.559Z,45.87
2023-02-05T16:04:37.624Z,45.23
2023-02-05T16:07:18.598Z,45.33
2023-02-05T16:09:48.412Z,45.31
2023-02-05T16:12:16.580Z,46.24
2023-02-05T16:14:44.939Z,46.41
2023-02-05T16:17:18.435Z,46.13
2023-02-05T16:19:52.966Z,46.27
2023-02-05T16:22:37.581Z,46.29
2023-02-05T16:25:13.235Z,46.15
2023-02-05T16:27:44.902Z,46.01
2023-02-05T16:30:33.463Z,45.72
2023-02-05T16:33:02.469Z,45.49
2023-02-05T16:35:36.605Z,45.27
2023-02-05T16:38:09.199Z,45.11
2023-02-05T16:40:43.306Z,44.97
2023-02-05T16:54:44.569Z,45.04
2023-02-05T16:57:14.420Z,42.82
2023-02-05T16:59:50.284Z,41.53
2023-02-05T17:02:39.642Z,41.03
2023-02-05T17:05:28.220Z,40.57
2023-02-05T17:08:02.121Z,39.20
2023-02-05T17:10:30.864Z,40.11
2023-02-05T17:13:05.382Z,41.54
2023-02-05T17:15:40.303Z,41.51
2023-02-05T17:18:24.158Z,40.81
2023-02-05T17:21:17.725Z,40.58
2023-02-05T17:23:50.364Z,39.69
2023-02-05T17:26:18.539Z,39.50
2023-02-05T17:28:52.552Z,39.71
2023-02-05T17:31:25.109Z,39.24
2023-02-05T17:33:58.047Z,39.84
2023-02-05T17:36:26.528Z,40.69
2023-02-05T17:38:54.623Z,40.67
2023-02-05T17:41:43.165Z,40.60
2023-02-05T17:44:15.857Z,40.46
2023-02-05T17:46:44.530Z,40.36
2023-02-05T17:49:13.217Z,40.17
2023-02-05T17:51:42.726Z,39.85
2023-02-05T17:54:17.016Z,40.47
2023-02-05T17:56:46.029Z,40.99
2023-02-05T17:59:15.857Z,41.51
2023-02-05T18:01:44.853Z,40.87
2023-02-05T18:04:13.132Z,40.91
2023-02-05T18:06:42.052Z,41.24
2023-02-05T18:09:10.371Z,40.61
2023-02-05T18:11:39.561Z,40.40
2023-02-05T18:14:08.884Z,39.96
2023-02-05T18:16:37.344Z,39.89
2023-02-05T18:19:05.829Z,41.79
2023-02-05T18:21:36.253Z,42.24
2023-02-05T18:24:04.733Z,41.61
2023-02-05T18:26:34.555Z,41.87
2023-02-05T18:29:03.039Z,40.80
2023-02-05T18:31:46.392Z,43.03
2023-02-05T18:34:14.683Z,43.29
2023-02-05T18:36:43.322Z,43.60
2023-02-05T18:39:11.623Z,43.57
2023-02-05T18:41:41.534Z,44.18
2023-02-05T18:44:09.794Z,44.62
2023-02-05T18:46:38.686Z,45.02
2023-02-05T18:49:07.171Z,44.76
2023-02-05T18:51:37.476Z,44.55
2023-02-05T18:54:06.996Z,44.74
2023-02-05T18:56:35.886Z,44.89
2023-02-05T18:59:06.424Z,44.99
2023-02-05T19:01:38.685Z,44.43
2023-02-05T19:04:08.569Z,44.36
2023-02-05T19:06:37.036Z,44.06
2023-02-05T19:09:05.275Z,44.09
2023-02-05T19:11:40.942Z,43.06
2023-02-05T19:14:11.260Z,42.37
2023-02-05T19:16:39.554Z,42.92
2023-02-05T19:19:07.938Z,43.55
2023-02-05T19:21:36.279Z,43.49
2023-02-05T19:24:10.060Z,44.00
2023-02-05T19:26:39.256Z,44.86
2023-02-05T19:29:09.373Z,44.36
2023-02-05T19:31:38.020Z,44.15
2023-02-05T19:34:06.647Z,43.54
2023-02-05T19:36:35.121Z,43.62
2023-02-05T19:39:04.892Z,43.07
2023-02-05T19:41:34.047Z,43.04
2023-02-05T19:44:04.436Z,42.85
2023-02-05T19:46:35.271Z,43.22
2023-02-05T19:49:05.745Z,43.11
2023-02-05T19:51:33.905Z,43.41
2023-02-05T19:54:06.719Z,44.03
2023-02-05T19:56:38.238Z,43.70
2023-02-05T19:59:07.031Z,43.61
2023-02-05T20:01:36.729Z,44.27
2023-02-05T20:04:19.232Z,45.28
2023-02-05T20:06:47.292Z,44.23
2023-02-05T20:09:16.112Z,43.73
2023-02-05T20:11:48.762Z,43.76
2023-02-05T20:14:17.016Z,43.68
2023-02-05T20:16:45.733Z,43.89
2023-02-05T20:19:15.192Z,43.61
2023-02-05T20:21:43.935Z,43.43
2023-02-05T20:24:12.499Z,43.36
2023-02-05T20:26:40.927Z,43.84
2023-02-05T20:29:30.485Z,43.50
2023-02-05T20:32:00.793Z,43.45
2023-02-05T20:34:31.979Z,43.36
2023-02-05T20:37:04.618Z,42.83
2023-02-05T20:39:35.043Z,42.40
2023-02-05T20:42:03.332Z,41.64
2023-02-05T20:44:33.870Z,40.99
2023-02-05T20:47:10.320Z,41.05
2023-02-05T20:49:43.035Z,40.85
2023-02-05T20:52:11.617Z,40.93
2023-02-05T20:54:40.586Z,41.08
2023-02-05T20:57:09.476Z,41.37
2023-02-05T20:59:38.997Z,41.88
2023-02-05T21:02:07.578Z,42.42
2023-02-05T21:04:36.934Z,43.74
2023-02-05T21:07:04.912Z,43.95
2023-02-05T21:09:33.033Z,43.80
2023-02-05T21:12:01.200Z,44.12
2023-02-05T21:14:30.677Z,43.89
2023-02-05T21:16:59.912Z,43.72
2023-02-05T21:19:28.873Z,43.97
2023-02-05T21:21:57.452Z,44.43
2023-02-05T21:24:25.625Z,44.35
2023-02-05T21:26:54.517Z,44.44
2023-02-05T21:29:22.802Z,44.31
2023-02-05T21:31:53.361Z,44.49
2023-02-05T21:34:23.519Z,44.11
2023-02-05T21:36:52.753Z,43.64
2023-02-05T21:39:21.576Z,43.61
2023-02-05T21:41:54.397Z,43.30
2023-02-05T21:44:23.231Z,43.32
2023-02-05T21:46:53.421Z,43.11
2023-02-05T21:49:21.606Z,42.94
2023-02-05T21:51:50.589Z,43.01
2023-02-05T21:54:20.812Z,42.90
2023-02-05T21:56:48.705Z,42.37
2023-02-05T21:59:16.649Z,42.56
2023-02-05T22:01:44.841Z,42.84
2023-02-05T22:04:14.724Z,44.04
2023-02-05T22:06:43.757Z,44.21
2023-02-05T22:09:16.773Z,43.54
2023-02-05T22:11:44.901Z,44.00
2023-02-05T22:14:13.287Z,43.61
2023-02-05T22:16:41.992Z,43.40
2023-02-05T22:19:13.498Z,43.19
2023-02-05T22:21:42.205Z,42.17
2023-02-05T22:24:15.106Z,41.79
2023-02-05T22:26:43.880Z,41.93
2023-02-05T22:29:13.741Z,41.23
2023-02-05T22:31:42.335Z,41.70
2023-02-05T22:34:10.975Z,42.14
2023-02-05T22:36:39.339Z,43.27
2023-02-05T22:39:07.394Z,44.26
2023-02-05T22:41:37.725Z,44.77
2023-02-05T22:44:06.337Z,44.98
2023-02-05T22:46:38.062Z,44.84
2023-02-05T22:49:06.149Z,44.83
2023-02-05T22:51:37.442Z,44.43
2023-02-05T22:54:06.131Z,43.91
2023-02-05T22:56:35.866Z,42.92
2023-02-05T22:59:03.998Z,43.12
2023-02-05T23:01:34.062Z,43.12
2023-02-05T23:04:03.284Z,43.82
2023-02-05T23:06:32.999Z,44.06
2023-02-05T23:09:05.976Z,44.26
2023-02-05T23:11:35.096Z,44.41
2023-02-05T23:14:03.718Z,44.01
2023-02-05T23:16:34.195Z,43.98
2023-02-05T23:19:04.676Z,44.33
2023-02-05T23:21:38.283Z,44.68
2023-02-05T23:24:06.741Z,44.25
2023-02-05T23:26:39.876Z,44.02
2023-02-05T23:29:09.051Z,43.85
2023-02-05T23:31:37.801Z,44.73
2023-02-05T23:34:06.001Z,45.04
2023-02-05T23:36:34.721Z,45.22
2023-02-05T23:39:03.206Z,45.48
2023-02-05T23:41:36.995Z,45.40
2023-02-05T23:44:13.200Z,45.17
2023-02-05T23:46:42.343Z,44.88
2023-02-05T23:49:10.549Z,44.47
2023-02-05T23:51:40.367Z,44.32
2023-02-05T23:54:09.634Z,44.56
2023-02-05T23:56:38.074Z,45.22
2023-02-05T23:59:07.208Z,45.38
